Time;durP1;ratioP1;P1;durP2;ratioP2;P2;SDS_P1;SDS_P2;PMS_P1;PMS_P2;Temp;Humidity;BMP_temperature;BMP_pressure;BME280_temperature;BME280_humidity;BME280_pressure;Samples;Min_cycle;Max_cycle;Signal;HPM_P1;HPM_P2
2023/06/25 00:00:50;;;;;;;;;;;20.10;67.10;;;;;;5088177;28;19912;-72
2023/06/25 00:03:16;;;;;;;;;;;20.00;67.10;;;;;;5087580;28;19924;-72
2023/06/25 00:05:41;;;;;;;;;;;20.00;67.10;;;;;;5087717;28;19920;-72
2023/06/25 00:08:07;;;;;;;;;;;20.10;67.10;;;;;;5087733;28;19919;-71
2023/06/25 00:10:33;;;;;;;;;;;20.00;67.10;;;;;;5087797;28;19916;-72
2023/06/25 00:12:58;;;;;;;;;;;20.10;67.10;;;;;;5087764;28;19911;-72
2023/06/25 00:15:24;;;;;;;;;;;20.10;67.20;;;;;;5087620;28;20250;-71
2023/06/25 00:17:49;;;;;;;;;;;20.10;67.10;;;;;;5087530;28;19923;-72
2023/06/25 00:20:15;;;;;;;;;;;20.10;67.10;;;;;;5087669;28;19912;-71
2023/06/25 00:22:42;;;;;;;;;;;20.10;67.10;;;;;;5087335;28;20031;-71
2023/06/25 00:25:08;;;;;;;;;;;20.10;67.10;;;;;;5087439;28;19941;-71
2023/06/25 00:27:33;;;;;;;;;;;20.10;67.10;;;;;;5087422;28;19916;-71
2023/06/25 00:30:00;;;;;;;;;;;20.10;67.10;;;;;;5087562;28;20280;-71
2023/06/25 00:32:25;;;;;;;;;;;20.10;67.10;;;;;;5088009;28;20408;-71
2023/06/25 00:34:57;;;;;;;;;;;20.10;67.10;;;;;;5087427;28;20003;-71
2023/06/25 00:37:23;;;;;;;;;;;20.10;67.20;;;;;;5087443;28;19934;-71
2023/06/25 00:39:48;;;;;;;;;;;20.10;67.70;;;;;;5086033;28;20412;-71
2023/06/25 00:42:14;;;;;;;;;;;20.10;67.20;;;;;;5087454;28;20014;-71
2023/06/25 00:44:40;;;;;;;;;;;20.10;67.10;;;;;;5087525;28;19912;-70
2023/06/25 00:47:07;;;;;;;;;;;20.10;67.10;;;;;;5087495;28;19909;-71
2023/06/25 00:49:33;;;;;;;;;;;20.10;67.10;;;;;;5089723;28;20437;-71
2023/06/25 00:52:00;;;;;;;;;;;20.20;67.70;;;;;;5091420;28;19913;-71
2023/06/25 00:54:25;;;;;;;;;;;20.20;67.30;;;;;;5091195;28;20096;-71
2023/06/25 00:56:51;;;;;;;;;;;20.20;67.20;;;;;;5091139;28;19957;-71
2023/06/25 00:59:17;;;;;;;;;;;20.20;67.30;;;;;;5091158;28;19943;-71
2023/06/25 01:01:52;;;;;;;;;;;20.20;67.20;;;;;;5091076;28;19916;-71
2023/06/25 01:04:22;;;;;;;;;;;20.20;67.20;;;;;;5090939;28;20056;-71
2023/06/25 01:06:51;;;;;;;;;;;20.20;67.20;;;;;;5091193;28;19908;-71
2023/06/25 01:09:17;;;;;;;;;;;20.10;67.30;;;;;;5089361;28;19908;-71
2023/06/25 01:11:59;;;;;;;;;;;20.10;67.30;;;;;;5091248;28;20288;-71
2023/06/25 01:14:28;;;;;;;;;;;20.10;67.30;;;;;;5090870;28;19908;-71
2023/06/25 01:16:54;;;;;;;;;;;20.10;67.30;;;;;;5091214;28;19912;-71
2023/06/25 01:19:19;;;;;;;;;;;20.10;67.30;;;;;;5090887;28;19916;-71
2023/06/25 01:21:46;;;;;;;;;;;20.10;67.30;;;;;;5090862;28;19916;-71
2023/06/25 01:24:11;;;;;;;;;;;20.10;67.30;;;;;;5090625;28;19916;-72
2023/06/25 01:26:37;;;;;;;;;;;20.10;67.40;;;;;;5090629;28;19919;-71
2023/06/25 01:29:03;;;;;;;;;;;20.10;67.40;;;;;;5090545;28;19916;-71
2023/06/25 01:31:30;;;;;;;;;;;20.10;67.30;;;;;;5090469;28;19919;-71
2023/06/25 01:33:57;;;;;;;;;;;20.10;67.30;;;;;;5090440;28;19920;-71
2023/06/25 01:36:22;;;;;;;;;;;20.20;67.40;;;;;;5090464;28;19985;-71
2023/06/25 01:38:48;;;;;;;;;;;20.20;67.40;;;;;;5090359;28;19916;-71
2023/06/25 01:41:13;;;;;;;;;;;20.20;67.40;;;;;;5090695;28;19955;-71
2023/06/25 01:43:39;;;;;;;;;;;20.20;67.40;;;;;;5090219;28;19920;-71
2023/06/25 01:46:04;;;;;;;;;;;20.20;67.40;;;;;;5090173;28;20357;-71
2023/06/25 01:48:30;;;;;;;;;;;20.20;67.40;;;;;;5088909;28;20354;-71
2023/06/25 01:50:56;;;;;;;;;;;20.20;67.40;;;;;;5090011;28;19908;-71
2023/06/25 01:53:22;;;;;;;;;;;20.30;67.40;;;;;;5089817;28;19920;-71
2023/06/25 01:55:47;;;;;;;;;;;20.30;67.40;;;;;;5089860;28;19912;-71
2023/06/25 01:58:13;;;;;;;;;;;20.30;67.40;;;;;;5089703;28;19966;-71
2023/06/25 02:00:40;;;;;;;;;;;20.30;67.40;;;;;;5087739;28;20035;-71
2023/06/25 02:03:05;;;;;;;;;;;20.30;67.40;;;;;;5089380;28;20303;-71
2023/06/25 02:05:31;;;;;;;;;;;20.30;67.40;;;;;;5089656;28;19915;-71
2023/06/25 02:07:57;;;;;;;;;;;20.30;67.30;;;;;;5089371;28;19912;-71
2023/06/25 02:10:23;;;;;;;;;;;20.30;67.40;;;;;;5089206;28;19962;-66
2023/06/25 02:12:48;;;;;;;;;;;20.30;67.40;;;;;;5089402;28;20417;-71
2023/06/25 02:15:14;;;;;;;;;;;20.20;67.40;;;;;;5089155;28;19923;-71
2023/06/25 02:17:39;;;;;;;;;;;20.30;67.50;;;;;;5089144;28;19935;-71
2023/06/25 02:20:06;;;;;;;;;;;20.20;68.00;;;;;;5089190;28;19912;-71
2023/06/25 02:22:31;;;;;;;;;;;20.20;67.50;;;;;;5088945;28;20053;-71
2023/06/25 02:24:57;;;;;;;;;;;20.10;67.50;;;;;;5088198;28;20015;-71
2023/06/25 02:27:22;;;;;;;;;;;20.10;67.50;;;;;;5088822;28;20464;-71
2023/06/25 02:29:48;;;;;;;;;;;20.00;67.50;;;;;;5087760;28;20273;-71
2023/06/25 02:32:13;;;;;;;;;;;20.10;67.60;;;;;;5089106;28;19912;-71
2023/06/25 02:34:39;;;;;;;;;;;20.10;67.60;;;;;;5088949;28;19919;-71
2023/06/25 02:37:31;;;;;;;;;;;20.10;67.60;;;;;;5087757;28;20211;-71
2023/06/25 02:39:56;;;;;;;;;;;20.10;67.50;;;;;;5086938;28;19915;-71
2023/06/25 02:42:22;;;;;;;;;;;20.10;67.50;;;;;;5089015;28;19916;-71
2023/06/25 02:44:47;;;;;;;;;;;20.10;67.50;;;;;;5089228;28;19912;-71
2023/06/25 02:47:13;;;;;;;;;;;20.00;67.50;;;;;;5089130;28;19912;-71
2023/06/25 02:49:38;;;;;;;;;;;20.10;67.60;;;;;;5089089;28;19923;-71
2023/06/25 02:52:04;;;;;;;;;;;20.10;67.60;;;;;;5087814;28;19921;-71
2023/06/25 02:54:29;;;;;;;;;;;20.00;67.60;;;;;;5088928;28;19916;-71
2023/06/25 02:56:56;;;;;;;;;;;20.00;67.60;;;;;;5088920;28;19912;-71
2023/06/25 02:59:21;;;;;;;;;;;20.00;67.50;;;;;;5088787;28;19919;-71
2023/06/25 03:01:47;;;;;;;;;;;20.00;67.60;;;;;;5088841;28;19916;-71
2023/06/25 03:04:12;;;;;;;;;;;20.00;67.60;;;;;;5088689;28;19958;-71
2023/06/25 03:06:38;;;;;;;;;;;20.00;67.60;;;;;;5088820;28;20330;-71
2023/06/25 03:09:03;;;;;;;;;;;20.00;67.60;;;;;;5088786;28;19913;-71
2023/06/25 03:11:29;;;;;;;;;;;19.90;67.50;;;;;;5087839;28;19970;-71
2023/06/25 03:13:55;;;;;;;;;;;19.90;67.50;;;;;;5088716;28;19916;-71
2023/06/25 03:16:20;;;;;;;;;;;19.90;67.50;;;;;;5088828;28;19965;-71
2023/06/25 03:18:46;;;;;;;;;;;19.90;67.50;;;;;;5088615;28;19962;-71
2023/06/25 03:21:11;;;;;;;;;;;19.80;67.50;;;;;;5088495;28;19912;-71
2023/06/25 03:23:37;;;;;;;;;;;19.80;67.60;;;;;;5088576;28;19916;-71
2023/06/25 03:26:03;;;;;;;;;;;19.80;67.60;;;;;;5088444;28;20330;-71
2023/06/25 03:28:28;;;;;;;;;;;19.80;67.50;;;;;;5088435;28;19937;-71
2023/06/25 03:30:54;;;;;;;;;;;19.80;67.50;;;;;;5088490;28;19919;-71
2023/06/25 03:33:19;;;;;;;;;;;19.80;67.50;;;;;;5088559;28;19912;-71
2023/06/25 03:35:45;;;;;;;;;;;19.80;67.50;;;;;;5087103;28;19918;-71
2023/06/25 03:38:10;;;;;;;;;;;19.80;67.50;;;;;;5088296;28;19916;-71
2023/06/25 03:40:36;;;;;;;;;;;19.70;67.50;;;;;;5088768;28;20323;-71
2023/06/25 03:43:02;;;;;;;;;;;19.70;67.50;;;;;;5088170;28;19916;-71
2023/06/25 03:45:27;;;;;;;;;;;19.70;67.50;;;;;;5088392;28;19919;-71
2023/06/25 03:47:53;;;;;;;;;;;19.70;67.50;;;;;;5088060;28;19950;-71
2023/06/25 03:50:19;;;;;;;;;;;19.70;67.50;;;;;;5088107;28;19919;-71
2023/06/25 03:52:44;;;;;;;;;;;19.70;67.50;;;;;;5088107;28;20384;-71
2023/06/25 03:55:10;;;;;;;;;;;19.70;67.50;;;;;;5087933;28;20329;-71
2023/06/25 03:57:35;;;;;;;;;;;19.70;67.40;;;;;;5087956;28;19935;-71
2023/06/25 04:00:01;;;;;;;;;;;19.70;67.40;;;;;;5088125;28;19969;-71
2023/06/25 04:02:26;;;;;;;;;;;19.70;67.40;;;;;;5087806;28;20389;-71
2023/06/25 04:04:52;;;;;;;;;;;19.70;67.40;;;;;;5086666;28;19981;-71
2023/06/25 04:07:17;;;;;;;;;;;19.70;67.40;;;;;;5086573;28;19912;-71
2023/06/25 04:09:43;;;;;;;;;;;19.70;67.40;;;;;;5087812;28;19915;-71
2023/06/25 04:12:09;;;;;;;;;;;19.60;67.40;;;;;;5088286;28;19998;-71
2023/06/25 04:14:35;;;;;;;;;;;19.60;67.50;;;;;;5087857;28;19938;-71
2023/06/25 04:17:00;;;;;;;;;;;19.60;67.50;;;;;;5087705;28;19999;-70
2023/06/25 04:19:26;;;;;;;;;;;19.60;67.50;;;;;;5087827;28;20374;-71
2023/06/25 04:21:51;;;;;;;;;;;19.70;67.60;;;;;;5087725;28;19916;-71
2023/06/25 04:24:17;;;;;;;;;;;19.70;67.60;;;;;;5089950;28;19921;-71
2023/06/25 04:26:43;;;;;;;;;;;19.60;67.60;;;;;;5091833;28;20272;-71
2023/06/25 04:29:08;;;;;;;;;;;19.70;67.60;;;;;;5091758;28;19947;-71
2023/06/25 04:31:34;;;;;;;;;;;19.70;67.60;;;;;;5091866;28;19993;-71
2023/06/25 04:33:59;;;;;;;;;;;19.70;67.60;;;;;;5092143;28;20276;-71
2023/06/25 04:36:25;;;;;;;;;;;19.70;67.60;;;;;;5091647;28;19916;-71
2023/06/25 04:38:50;;;;;;;;;;;19.70;67.60;;;;;;5091656;28;20012;-71
2023/06/25 04:41:16;;;;;;;;;;;19.70;67.60;;;;;;5092074;28;19919;-71
2023/06/25 04:43:41;;;;;;;;;;;19.70;67.60;;;;;;5091531;28;19912;-71
2023/06/25 04:46:07;;;;;;;;;;;19.80;67.50;;;;;;5091429;28;20418;-71
2023/06/25 04:48:33;;;;;;;;;;;19.80;67.50;;;;;;5091393;28;19912;-71
2023/06/25 04:50:58;;;;;;;;;;;19.90;67.50;;;;;;5091372;28;19955;-71
2023/06/25 04:53:24;;;;;;;;;;;19.90;68.00;;;;;;5089915;28;19912;-71
2023/06/25 04:55:49;;;;;;;;;;;19.90;67.40;;;;;;5089893;28;19919;-71
2023/06/25 04:58:15;;;;;;;;;;;20.00;67.50;;;;;;5091301;28;19930;-71
2023/06/25 05:00:40;;;;;;;;;;;20.00;67.40;;;;;;5091200;28;19955;-71
2023/06/25 05:03:06;;;;;;;;;;;20.00;67.40;;;;;;5090958;28;19927;-71
2023/06/25 05:05:32;;;;;;;;;;;20.00;67.50;;;;;;5091108;28;19916;-70
2023/06/25 05:07:58;;;;;;;;;;;20.00;67.40;;;;;;5090976;28;19912;-71
2023/06/25 05:10:23;;;;;;;;;;;20.00;67.20;;;;;;5090690;28;19919;-71
2023/06/25 05:12:49;;;;;;;;;;;19.90;67.10;;;;;;5090584;28;20265;-71
2023/06/25 05:15:15;;;;;;;;;;;19.70;67.10;;;;;;5090794;28;19974;-71
2023/06/25 05:17:40;;;;;;;;;;;19.60;67.30;;;;;;5090443;28;19908;-71
2023/06/25 05:20:06;;;;;;;;;;;19.60;67.30;;;;;;5090788;28;20397;-71
2023/06/25 05:22:31;;;;;;;;;;;19.50;67.20;;;;;;5090680;28;19912;-71
2023/06/25 05:24:57;;;;;;;;;;;19.40;67.10;;;;;;5089474;28;19924;-71
2023/06/25 05:27:22;;;;;;;;;;;19.30;67.10;;;;;;5090550;28;19928;-71
2023/06/25 05:29:48;;;;;;;;;;;19.10;67.20;;;;;;5090590;28;19992;-71
2023/06/25 05:32:16;;;;;;;;;;;18.90;67.20;;;;;;5090513;28;19912;-71
2023/06/25 05:34:42;;;;;;;;;;;18.80;67.40;;;;;;5090167;28;19951;-71
2023/06/25 05:37:07;;;;;;;;;;;18.80;67.50;;;;;;5089082;28;20012;-71
2023/06/25 05:39:33;;;;;;;;;;;18.70;67.50;;;;;;5090402;28;19916;-71
2023/06/25 05:41:58;;;;;;;;;;;18.80;67.50;;;;;;5089147;28;19927;-71
2023/06/25 05:44:24;;;;;;;;;;;18.70;67.40;;;;;;5090376;28;19919;-71
2023/06/25 05:46:50;;;;;;;;;;;18.70;67.50;;;;;;5090325;28;20280;-71
2023/06/25 05:49:16;;;;;;;;;;;18.80;67.60;;;;;;5090699;28;19912;-71
2023/06/25 05:51:41;;;;;;;;;;;18.80;67.50;;;;;;5090234;28;19962;-71
2023/06/25 05:54:07;;;;;;;;;;;18.80;67.50;;;;;;5090166;28;19912;-71
2023/06/25 05:56:32;;;;;;;;;;;18.80;67.50;;;;;;5088660;28;20338;-71
2023/06/25 05:58:58;;;;;;;;;;;18.90;67.40;;;;;;5090031;28;19908;-71
2023/06/25 06:01:25;;;;;;;;;;;18.80;67.40;;;;;;5089880;28;19958;-71
2023/06/25 06:03:51;;;;;;;;;;;18.80;67.40;;;;;;5089898;28;19927;-71
2023/06/25 06:06:17;;;;;;;;;;;18.90;67.40;;;;;;5089928;28;19912;-71
2023/06/25 06:08:42;;;;;;;;;;;18.90;67.50;;;;;;5089946;28;19932;-71
2023/06/25 06:11:08;;;;;;;;;;;18.90;67.50;;;;;;5089829;28;19919;-71
2023/06/25 06:13:34;;;;;;;;;;;19.00;67.50;;;;;;5089868;28;19912;-71
2023/06/25 06:16:00;;;;;;;;;;;19.00;67.40;;;;;;5089605;28;19916;-71
2023/06/25 06:18:25;;;;;;;;;;;19.00;67.40;;;;;;5089690;28;19908;-71
2023/06/25 06:20:51;;;;;;;;;;;19.00;67.50;;;;;;5089643;28;19912;-71
2023/06/25 06:23:16;;;;;;;;;;;19.10;67.50;;;;;;5088496;28;19969;-71
2023/06/25 06:25:42;;;;;;;;;;;19.10;67.50;;;;;;5089810;28;19916;-71
2023/06/25 06:28:07;;;;;;;;;;;19.10;67.40;;;;;;5089320;28;19913;-71
2023/06/25 06:30:33;;;;;;;;;;;19.10;67.40;;;;;;5089370;28;19912;-71
2023/06/25 06:32:58;;;;;;;;;;;19.20;67.50;;;;;;5089318;28;20428;-71
2023/06/25 06:35:24;;;;;;;;;;;19.30;67.60;;;;;;5089261;28;20386;-71
2023/06/25 06:37:49;;;;;;;;;;;19.30;67.50;;;;;;5089115;28;19948;-71
2023/06/25 06:40:15;;;;;;;;;;;19.30;67.50;;;;;;5089182;28;20360;-71
2023/06/25 06:42:40;;;;;;;;;;;19.40;67.50;;;;;;5088941;28;19952;-70
2023/06/25 06:45:06;;;;;;;;;;;19.40;67.40;;;;;;5089064;28;19916;-71
2023/06/25 06:47:32;;;;;;;;;;;19.40;67.50;;;;;;5088880;28;19922;-71
2023/06/25 06:49:58;;;;;;;;;;;19.40;67.50;;;;;;5088955;28;20007;-71
2023/06/25 06:52:25;;;;;;;;;;;19.40;68.00;;;;;;5088834;28;19920;-71
2023/06/25 06:54:50;;;;;;;;;;;19.30;67.50;;;;;;5088809;28;20276;-71
2023/06/25 06:57:16;;;;;;;;;;;19.00;67.70;;;;;;5088764;28;19919;-71
2023/06/25 06:59:41;;;;;;;;;;;18.90;67.90;;;;;;5088804;28;20364;-71
2023/06/25 07:02:07;;;;;;;;;;;18.80;67.90;;;;;;5088494;28;19920;-72
2023/06/25 07:04:32;;;;;;;;;;;18.60;67.90;;;;;;5088577;28;20280;-71
2023/06/25 07:06:58;;;;;;;;;;;18.50;67.80;;;;;;5087247;28;19912;-71
2023/06/25 07:09:25;;;;;;;;;;;18.40;67.80;;;;;;5089041;28;19912;-71
2023/06/25 07:11:50;;;;;;;;;;;18.30;67.80;;;;;;5087342;28;19912;-71
2023/06/25 07:14:16;;;;;;;;;;;18.20;67.90;;;;;;5088580;28;20057;-71
2023/06/25 07:16:41;;;;;;;;;;;18.00;67.80;;;;;;5088408;28;20360;-71
2023/06/25 07:19:07;;;;;;;;;;;17.90;67.90;;;;;;5086979;28;20080;-71
2023/06/25 07:21:33;;;;;;;;;;;17.80;68.00;;;;;;5087222;28;19919;-71
2023/06/25 07:23:59;;;;;;;;;;;17.80;68.10;;;;;;5088559;28;19920;-71
2023/06/25 07:26:24;;;;;;;;;;;17.80;68.00;;;;;;5088366;28;19908;-71
2023/06/25 07:28:50;;;;;;;;;;;17.80;68.00;;;;;;5070193;28;20383;-71
2023/06/25 07:31:15;;;;;;;;;;;17.80;67.90;;;;;;5088003;28;20225;-71
2023/06/25 07:33:41;;;;;;;;;;;17.70;67.80;;;;;;5088266;28;19908;-71
2023/06/25 07:36:06;;;;;;;;;;;17.70;67.90;;;;;;5088087;28;19908;-71
2023/06/25 07:38:32;;;;;;;;;;;17.70;67.80;;;;;;5088138;28;19994;-71
2023/06/25 07:40:58;;;;;;;;;;;17.70;67.80;;;;;;5088507;28;19908;-71
2023/06/25 07:43:23;;;;;;;;;;;17.80;67.90;;;;;;5087940;28;19942;-71
2023/06/25 07:45:49;;;;;;;;;;;17.80;67.80;;;;;;5087907;28;20000;-71
2023/06/25 07:48:14;;;;;;;;;;;17.80;67.70;;;;;;5087959;28;19912;-71
2023/06/25 07:50:40;;;;;;;;;;;17.80;67.70;;;;;;5087807;28;20050;-70
2023/06/25 07:53:05;;;;;;;;;;;17.80;67.70;;;;;;5087967;28;19908;-71
2023/06/25 07:55:38;;;;;;;;;;;17.80;67.70;;;;;;5087849;28;19992;-71
2023/06/25 07:58:04;;;;;;;;;;;17.80;68.20;;;;;;5087455;28;19916;-70
2023/06/25 08:00:30;;;;;;;;;;;17.80;67.80;;;;;;5087926;28;19937;-70
2023/06/25 08:02:55;;;;;;;;;;;17.80;67.80;;;;;;5087441;28;19928;-71
2023/06/25 08:05:21;;;;;;;;;;;17.80;67.80;;;;;;5087614;28;19931;-70
2023/06/25 08:07:46;;;;;;;;;;;17.80;67.80;;;;;;5087588;28;19919;-70
2023/06/25 08:10:12;;;;;;;;;;;17.90;68.00;;;;;;5086251;28;19929;-71
2023/06/25 08:12:37;;;;;;;;;;;17.90;68.00;;;;;;5087610;28;19991;-71
2023/06/25 08:15:03;;;;;;;;;;;18.00;68.00;;;;;;5087668;28;20307;-70
2023/06/25 08:17:29;;;;;;;;;;;18.00;67.80;;;;;;5087615;28;19970;-71
2023/06/25 08:19:54;;;;;;;;;;;18.10;67.90;;;;;;5087455;28;19916;-70
2023/06/25 08:22:20;;;;;;;;;;;18.10;67.90;;;;;;5087435;28;20007;-70
2023/06/25 08:24:46;;;;;;;;;;;18.20;67.80;;;;;;5087638;28;19912;-71
2023/06/25 08:27:11;;;;;;;;;;;18.30;67.80;;;;;;5087407;28;19918;-70
2023/06/25 08:29:37;;;;;;;;;;;18.30;67.80;;;;;;5086200;28;19923;-71
2023/06/25 08:32:02;;;;;;;;;;;18.40;67.80;;;;;;5086151;28;19916;-70
2023/06/25 08:34:28;;;;;;;;;;;18.50;67.70;;;;;;5085996;28;20376;-70
2023/06/25 08:36:55;;;;;;;;;;;18.50;67.60;;;;;;5087310;28;20010;-71
2023/06/25 08:39:21;;;;;;;;;;;18.60;67.70;;;;;;5087246;28;19916;-71
2023/06/25 08:41:48;;;;;;;;;;;18.60;67.90;;;;;;5087518;28;19920;-70
2023/06/25 08:44:14;;;;;;;;;;;18.60;68.00;;;;;;5087383;28;19914;-70
2023/06/25 08:46:43;;;;;;;;;;;18.60;67.90;;;;;;5087146;28;20377;-70
2023/06/25 08:49:09;;;;;;;;;;;18.70;67.90;;;;;;5087353;28;19920;-70
2023/06/25 08:51:35;;;;;;;;;;;18.70;67.90;;;;;;5087482;28;20543;-70
2023/06/25 08:54:01;;;;;;;;;;;18.80;67.70;;;;;;5087169;28;19931;-70
2023/06/25 08:56:27;;;;;;;;;;;18.80;67.80;;;;;;5087156;28;19921;-71
2023/06/25 08:58:52;;;;;;;;;;;18.90;67.80;;;;;;5087065;28;19908;-71
2023/06/25 09:01:18;;;;;;;;;;;18.90;67.80;;;;;;5086631;28;19995;-70
2023/06/25 09:03:44;;;;;;;;;;;19.00;68.00;;;;;;5086607;28;19924;-70
2023/06/25 09:06:13;;;;;;;;;;;19.10;68.00;;;;;;5086889;28;19948;-71
2023/06/25 09:08:39;;;;;;;;;;;19.30;68.00;;;;;;5086777;28;20283;-70
2023/06/25 09:11:04;;;;;;;;;;;19.40;67.90;;;;;;5089734;28;19909;-70
2023/06/25 09:13:30;;;;;;;;;;;19.50;67.90;;;;;;5090505;28;19960;-71
2023/06/25 09:16:00;;;;;;;;;;;19.40;67.70;;;;;;5090717;28;20308;-70
2023/06/25 09:18:26;;;;;;;;;;;19.40;67.70;;;;;;5091024;28;20383;-70
2023/06/25 09:20:53;;;;;;;;;;;19.50;67.90;;;;;;5090663;28;19926;-71
2023/06/25 09:23:22;;;;;;;;;;;19.60;68.00;;;;;;5089067;28;19919;-70
2023/06/25 09:25:48;;;;;;;;;;;19.80;67.90;;;;;;5090399;28;20399;-70
2023/06/25 09:28:14;;;;;;;;;;;19.90;68.00;;;;;;5090406;28;19923;-71
2023/06/25 09:30:40;;;;;;;;;;;20.00;67.90;;;;;;5090504;28;19916;-71
2023/06/25 09:33:05;;;;;;;;;;;20.20;68.10;;;;;;5090634;28;19908;-71
2023/06/25 09:35:32;;;;;;;;;;;20.40;68.30;;;;;;5090272;28;19913;-71
2023/06/25 09:37:58;;;;;;;;;;;20.90;68.50;;;;;;5090211;28;19994;-71
2023/06/25 09:40:23;;;;;;;;;;;21.60;68.70;;;;;;5090121;28;19917;-72
2023/06/25 09:42:52;;;;;;;;;;;22.80;69.20;;;;;;5088412;28;19967;-71
2023/06/25 09:45:19;;;;;;;;;;;23.80;68.20;;;;;;5088553;28;20379;-72
2023/06/25 09:47:47;;;;;;;;;;;24.10;67.20;;;;;;5088665;28;20001;-72
2023/06/25 09:50:16;;;;;;;;;;;24.10;66.80;;;;;;5090068;28;19953;-72
2023/06/25 09:52:43;;;;;;;;;;;23.90;66.80;;;;;;5089519;28;19955;-72
2023/06/25 09:55:10;;;;;;;;;;;23.80;66.80;;;;;;5089924;28;19976;-72
2023/06/25 09:57:35;;;;;;;;;;;23.60;67.10;;;;;;5089787;28;20300;-72
2023/06/25 10:00:01;;;;;;;;;;;23.50;67.30;;;;;;5088138;28;19919;-72
2023/06/25 10:02:27;;;;;;;;;;;23.40;67.50;;;;;;5087373;28;20383;-72
2023/06/25 10:04:52;;;;;;;;;;;23.40;67.40;;;;;;5089561;28;19929;-71
2023/06/25 10:07:18;;;;;;;;;;;23.20;67.60;;;;;;5089741;28;19998;-71
2023/06/25 10:09:56;;;;;;;;;;;23.20;68.00;;;;;;5089605;28;19959;-71
2023/06/25 10:12:21;;;;;;;;;;;23.50;68.30;;;;;;5089226;28;19912;-71
2023/06/25 10:14:47;;;;;;;;;;;23.80;68.10;;;;;;5089324;28;19916;-71
2023/06/25 10:17:13;;;;;;;;;;;24.20;68.10;;;;;;5087679;28;20002;-71
2023/06/25 10:19:38;;;;;;;;;;;24.40;67.80;;;;;;5089212;28;20010;-71
2023/06/25 10:22:05;;;;;;;;;;;24.40;67.40;;;;;;5088680;28;20372;-71
2023/06/25 10:24:40;;;;;;;;;;;24.10;67.10;;;;;;5088818;28;19980;-71
2023/06/25 10:27:07;;;;;;;;;;;23.70;67.20;;;;;;5088927;28;19908;-71
2023/06/25 10:29:39;;;;;;;;;;;23.20;67.20;;;;;;5088719;28;19916;-71
2023/06/25 10:32:05;;;;;;;;;;;22.90;67.50;;;;;;5088531;28;19908;-71
2023/06/25 10:34:35;;;;;;;;;;;22.60;67.80;;;;;;5087402;28;19923;-71
2023/06/25 10:37:03;;;;;;;;;;;22.50;68.40;;;;;;5088970;28;19908;-71
2023/06/25 10:39:38;;;;;;;;;;;23.10;69.50;;;;;;5089308;28;20285;-71
2023/06/25 10:42:04;;;;;;;;;;;24.60;70.30;;;;;;5089559;28;19964;-71
2023/06/25 10:44:29;;;;;;;;;;;26.40;69.80;;;;;;5088648;28;20434;-72
2023/06/25 10:47:05;;;;;;;;;;;27.50;68.90;;;;;;5088686;28;19994;-72
2023/06/25 10:49:30;;;;;;;;;;;28.00;67.90;;;;;;5088578;28;19916;-72
2023/06/25 10:52:00;;;;;;;;;;;28.10;67.50;;;;;;5088820;28;19915;-72
2023/06/25 10:54:26;;;;;;;;;;;28.00;67.10;;;;;;5088578;28;19929;-72
2023/06/25 10:57:07;;;;;;;;;;;27.90;67.30;;;;;;5088114;28;19924;-72
2023/06/25 10:59:33;;;;;;;;;;;27.70;67.20;;;;;;5088177;28;20435;-72
2023/06/25 11:02:09;;;;;;;;;;;27.30;67.50;;;;;;5088152;28;20011;-72
2023/06/25 11:04:34;;;;;;;;;;;27.00;67.70;;;;;;5088130;28;19931;-72
2023/06/25 11:07:00;;;;;;;;;;;26.70;67.80;;;;;;5088158;28;19916;-72
2023/06/25 11:09:26;;;;;;;;;;;26.40;67.90;;;;;;5086966;28;19918;-72
2023/06/25 11:11:52;;;;;;;;;;;25.90;67.80;;;;;;5088328;28;19978;-71
2023/06/25 11:14:18;;;;;;;;;;;25.40;67.70;;;;;;5088197;28;19943;-71
2023/06/25 11:16:47;;;;;;;;;;;24.90;67.90;;;;;;5088134;28;19912;-71
2023/06/25 11:19:12;;;;;;;;;;;24.50;68.20;;;;;;5087934;28;19916;-72
2023/06/25 11:21:38;;;;;;;;;;;24.20;68.50;;;;;;5086338;28;19916;-72
2023/06/25 11:24:07;;;;;;;;;;;24.20;68.80;;;;;;5087838;28;19951;-72
2023/06/25 11:26:40;;;;;;;;;;;24.40;68.80;;;;;;5087431;28;19909;-71
2023/06/25 11:29:06;;;;;;;;;;;24.60;68.80;;;;;;5087538;28;19970;-71
2023/06/25 11:31:42;;;;;;;;;;;25.00;68.90;;;;;;5087953;28;19999;-72
2023/06/25 11:34:09;;;;;;;;;;;25.70;69.20;;;;;;5086127;28;19908;-72
2023/06/25 11:36:35;;;;;;;;;;;26.20;68.80;;;;;;5087853;28;19919;-72
2023/06/25 11:39:01;;;;;;;;;;;26.30;68.20;;;;;;5087605;28;19912;-71
2023/06/25 11:41:27;;;;;;;;;;;26.20;67.50;;;;;;5087534;28;19919;-72
2023/06/25 11:43:53;;;;;;;;;;;25.90;67.50;;;;;;5086271;28;19923;-72
2023/06/25 11:46:20;;;;;;;;;;;25.70;67.60;;;;;;5087693;28;19908;-72
2023/06/25 11:48:50;;;;;;;;;;;25.70;68.10;;;;;;5087316;28;20376;-72
2023/06/25 11:51:15;;;;;;;;;;;26.50;69.70;;;;;;5087591;28;19916;-73
2023/06/25 11:53:41;;;;;;;;;;;27.90;70.80;;;;;;5087644;28;19912;-72
2023/06/25 11:56:06;;;;;;;;;;;29.50;70.90;;;;;;5085999;28;20238;-73
2023/06/25 11:58:32;;;;;;;;;;;30.90;70.70;;;;;;5085603;28;19912;-73
2023/06/25 12:00:58;;;;;;;;;;;31.80;70.00;;;;;;5087199;28;19925;-73
2023/06/25 12:03:24;;;;;;;;;;;32.10;69.30;;;;;;5085899;28;20276;-73
2023/06/25 12:05:50;;;;;;;;;;;32.00;69.10;;;;;;5087569;28;19919;-73
2023/06/25 12:08:17;;;;;;;;;;;32.20;69.70;;;;;;5086756;28;20518;-72
2023/06/25 12:10:43;;;;;;;;;;;32.60;70.30;;;;;;5087044;28;19938;-73
2023/06/25 12:13:08;;;;;;;;;;;33.10;70.30;;;;;;5086842;28;19935;-72
2023/06/25 12:15:34;;;;;;;;;;;33.60;70.60;;;;;;5087560;28;20230;-73
2023/06/25 12:17:59;;;;;;;;;;;34.00;70.60;;;;;;5086798;28;19916;-73
2023/06/25 12:20:25;;;;;;;;;;;34.30;70.70;;;;;;5087190;28;20314;-73
2023/06/25 12:22:50;;;;;;;;;;;34.60;70.90;;;;;;5087429;28;19920;-73
2023/06/25 12:25:16;;;;;;;;;;;34.60;70.50;;;;;;5087187;28;19958;-73
2023/06/25 12:27:44;;;;;;;;;;;34.30;70.30;;;;;;5086880;28;20020;-73
2023/06/25 12:30:10;;;;;;;;;;;33.90;70.40;;;;;;5087126;28;19912;-73
2023/06/25 12:32:35;;;;;;;;;;;33.70;70.20;;;;;;5087372;28;19950;-72
2023/06/25 12:35:01;;;;;;;;;;;32.80;69.60;;;;;;5087350;28;19934;-72
2023/06/25 12:37:27;;;;;;;;;;;31.70;69.40;;;;;;5087204;28;19916;-72
2023/06/25 12:39:52;;;;;;;;;;;30.50;69.10;;;;;;5085580;28;20026;-72
2023/06/25 12:42:18;;;;;;;;;;;29.30;69.30;;;;;;5086875;28;20250;-72
2023/06/25 12:44:43;;;;;;;;;;;28.50;70.00;;;;;;5089190;28;19945;-72
2023/06/25 12:47:09;;;;;;;;;;;28.20;71.30;;;;;;5090636;28;19994;-73
2023/06/25 12:49:35;;;;;;;;;;;28.60;72.30;;;;;;5090309;28;19917;-72
2023/06/25 12:52:01;;;;;;;;;;;29.40;73.00;;;;;;5090201;28;20396;-72
2023/06/25 12:54:26;;;;;;;;;;;30.20;72.50;;;;;;5090615;28;19999;-72
2023/06/25 12:56:52;;;;;;;;;;;30.10;71.30;;;;;;5090053;28;20007;-73
2023/06/25 12:59:17;;;;;;;;;;;29.90;71.00;;;;;;5090983;28;19912;-72
2023/06/25 13:01:43;;;;;;;;;;;29.50;70.40;;;;;;5090233;28;19935;-72
2023/06/25 13:04:09;;;;;;;;;;;29.00;69.70;;;;;;5090276;28;19935;-72
2023/06/25 13:06:36;;;;;;;;;;;28.30;69.30;;;;;;5090201;28;20021;-72
2023/06/25 13:09:02;;;;;;;;;;;27.70;69.30;;;;;;5089986;28;19919;-72
2023/06/25 13:11:27;;;;;;;;;;;27.10;69.30;;;;;;5088941;28;19916;-72
2023/06/25 13:13:53;;;;;;;;;;;26.60;69.30;;;;;;5090274;28;19911;-72
2023/06/25 13:16:19;;;;;;;;;;;26.10;69.50;;;;;;5088715;28;19947;-72
2023/06/25 13:18:45;;;;;;;;;;;26.00;70.10;;;;;;5089986;28;19909;-72
2023/06/25 13:21:10;;;;;;;;;;;26.10;70.40;;;;;;5088990;28;19919;-72
2023/06/25 13:23:37;;;;;;;;;;;26.50;70.50;;;;;;5089979;28;20302;-72
2023/06/25 13:26:02;;;;;;;;;;;26.90;69.90;;;;;;5089913;28;19908;-72
2023/06/25 13:28:28;;;;;;;;;;;27.00;69.20;;;;;;5090002;28;19919;-72
2023/06/25 13:30:54;;;;;;;;;;;27.10;68.90;;;;;;5090157;28;19919;-72
2023/06/25 13:33:19;;;;;;;;;;;27.00;68.50;;;;;;5089844;28;19999;-72
2023/06/25 13:35:45;;;;;;;;;;;26.90;68.40;;;;;;5089967;28;20052;-72
2023/06/25 13:38:10;;;;;;;;;;;26.70;68.30;;;;;;5089940;28;20244;-72
2023/06/25 13:40:36;;;;;;;;;;;26.50;68.30;;;;;;5089995;28;19923;-72
2023/06/25 13:43:01;;;;;;;;;;;26.30;68.10;;;;;;5089643;28;19916;-75
2023/06/25 13:45:28;;;;;;;;;;;26.00;68.10;;;;;;5088043;28;19923;-72
2023/06/25 13:47:54;;;;;;;;;;;25.80;68.30;;;;;;5088346;28;19912;-72
2023/06/25 13:50:19;;;;;;;;;;;25.60;68.40;;;;;;5089435;28;19975;-72
2023/06/25 13:52:45;;;;;;;;;;;25.50;68.40;;;;;;5089712;28;20400;-72
2023/06/25 13:55:10;;;;;;;;;;;25.40;68.50;;;;;;5070666;28;19916;-72
2023/06/25 13:57:36;;;;;;;;;;;25.30;68.50;;;;;;5088998;28;20015;-76
2023/06/25 14:00:02;;;;;;;;;;;25.30;68.60;;;;;;5089444;28;19923;-76
2023/06/25 14:02:27;;;;;;;;;;;25.20;68.70;;;;;;5089101;28;19997;-76
2023/06/25 14:04:53;;;;;;;;;;;25.30;68.70;;;;;;5089266;28;19912;-76
2023/06/25 14:07:19;;;;;;;;;;;25.30;68.50;;;;;;5089046;28;19912;-76
2023/06/25 14:09:44;;;;;;;;;;;25.10;68.40;;;;;;5089254;28;19958;-76